Time;durP1;ratioP1;P1;durP2;ratioP2;P2;SDS_P1;SDS_P2;PMS_P1;PMS_P2;Temp;Humidity;BMP_temperature;BMP_pressure;BME280_temperature;BME280_humidity;BME280_pressure;Samples;Min_cycle;Max_cycle;Signal;HPM_P1;HPM_P2
2023/05/02 00:01:15;;;;;;;3.10;2.45;;;;;;;;;;6286072;22;20024;-80
2023/05/02 00:04:00;;;;;;;3.60;2.08;;;;;;;;;;6287797;22;20425;-80
2023/05/02 00:06:45;;;;;;;4.70;2.90;;;;;;;;;;6286586;22;20016;-79
2023/05/02 00:09:31;;;;;;;9.40;2.70;;;;;;;;;;6287614;22;20019;-80
2023/05/02 00:12:16;;;;;;;3.72;3.00;;;;;;;;;;6286391;22;20015;-81
2023/05/02 00:15:02;;;;;;;9.68;2.70;;;;;;;;;;6287825;22;20020;-80
2023/05/02 00:17:47;;;;;;;3.97;2.50;;;;;;;;;;6287647;22;20019;-80
2023/05/02 00:20:32;;;;;;;3.30;2.50;;;;;;;;;;6285523;22;20015;-80
2023/05/02 00:23:17;;;;;;;6.65;3.63;;;;;;;;;;6285777;22;20020;-80
2023/05/02 00:26:08;;;;;;;6.28;3.53;;;;;;;;;;6287359;22;20019;-80
2023/05/02 00:28:53;;;;;;;4.55;3.35;;;;;;;;;;6278776;22;20020;-81
2023/05/02 00:31:42;;;;;;;5.47;3.55;;;;;;;;;;6286044;22;20015;-80
2023/05/02 00:34:31;;;;;;;5.10;2.90;;;;;;;;;;6287569;22;20433;-80
2023/05/02 00:37:16;;;;;;;4.25;2.88;;;;;;;;;;6286394;22;20020;-81
2023/05/02 00:40:02;;;;;;;4.65;3.05;;;;;;;;;;6287420;22;20011;-80
2023/05/02 00:42:47;;;;;;;4.10;2.80;;;;;;;;;;6287561;22;20023;-80
2023/05/02 00:45:33;;;;;;;3.17;2.60;;;;;;;;;;6287599;22;20015;-81
2023/05/02 00:48:20;;;;;;;6.82;3.10;;;;;;;;;;6285245;22;20023;-81
2023/05/02 00:51:07;;;;;;;3.97;2.90;;;;;;;;;;6287851;22;20019;-80
2023/05/02 00:53:53;;;;;;;7.32;2.50;;;;;;;;;;6286202;22;20019;-79
2023/05/02 00:56:38;;;;;;;4.90;3.22;;;;;;;;;;6287449;22;20020;-80
2023/05/02 00:59:25;;;;;;;3.70;2.90;;;;;;;;;;6287623;22;20342;-81
2023/05/02 01:02:38;;;;;;;4.82;2.90;;;;;;;;;;6286420;22;20016;-80
2023/05/02 01:05:43;;;;;;;3.72;2.88;;;;;;;;;;6286567;22;20016;-80
2023/05/02 01:08:38;;;;;;;3.40;2.58;;;;;;;;;;6287259;22;20015;-81
2023/05/02 01:11:36;;;;;;;3.63;2.63;;;;;;;;;;6287738;22;20011;-81
2023/05/02 01:14:24;;;;;;;4.00;2.80;;;;;;;;;;6287349;22;20019;-81
2023/05/02 01:17:13;;;;;;;7.15;2.80;;;;;;;;;;6287306;22;20019;-81
2023/05/02 01:20:04;;;;;;;5.20;2.60;;;;;;;;;;6286300;22;20329;-81
2023/05/02 01:22:51;;;;;;;4.88;2.83;;;;;;;;;;6285975;22;20011;-80
2023/05/02 01:26:15;;;;;;;4.35;2.97;;;;;;;;;;6286426;22;20016;-80
2023/05/02 01:29:07;;;;;;;4.50;3.05;;;;;;;;;;6183673;23;20017;-80
2023/05/02 01:32:01;;;;;;;4.63;3.10;;;;;;;;;;6296384;22;20015;-80
2023/05/02 01:34:49;;;;;;;3.97;2.95;;;;;;;;;;6273686;22;20432;-81
2023/05/02 01:37:37;;;;;;;5.32;3.60;;;;;;;;;;6295396;22;20020;-81
2023/05/02 01:40:25;;;;;;;5.78;2.80;;;;;;;;;;6274093;22;20016;-80
2023/05/02 01:43:15;;;;;;;4.03;2.85;;;;;;;;;;6317869;22;20015;-81
2023/05/02 01:46:03;;;;;;;4.43;2.67;;;;;;;;;;6295457;22;20420;-81
2023/05/02 01:48:51;;;;;;;5.95;3.03;;;;;;;;;;6318140;22;20019;-81
2023/05/02 01:51:49;;;;;;;3.75;2.83;;;;;;;;;;6295708;22;20049;-81
2023/05/02 01:54:36;;;;;;;4.85;2.40;;;;;;;;;;6297800;22;20019;-79
2023/05/02 01:57:21;;;;;;;3.47;2.42;;;;;;;;;;6297481;22;20341;-80
2023/05/02 02:00:08;;;;;;;3.83;2.80;;;;;;;;;;6297967;22;20015;-80
2023/05/02 02:02:58;;;;;;;4.20;2.40;;;;;;;;;;6321209;22;20352;-80
2023/05/02 02:05:45;;;;;;;2.92;1.95;;;;;;;;;;6277273;22;20019;-80
2023/05/02 02:08:31;;;;;;;5.03;2.08;;;;;;;;;;6321491;22;20019;-80
2023/05/02 02:11:25;;;;;;;2.35;1.95;;;;;;;;;;6297972;22;20019;-80
2023/05/02 02:14:19;;;;;;;5.03;1.90;;;;;;;;;;6297782;22;20020;-80
2023/05/02 02:17:12;;;;;;;3.92;2.10;;;;;;;;;;6308591;22;20345;-79
2023/05/02 02:20:02;;;;;;;2.17;1.88;;;;;;;;;;6318075;22;20019;-81
2023/05/02 02:22:48;;;;;;;2.92;2.03;;;;;;;;;;6318075;22;20019;-80
2023/05/02 02:25:35;;;;;;;2.33;1.95;;;;;;;;;;6273477;22;20019;-81
2023/05/02 02:28:21;;;;;;;2.25;1.95;;;;;;;;;;6301140;22;20342;-80
2023/05/02 02:31:06;;;;;;;2.28;1.83;;;;;;;;;;6287180;22;20020;-79
2023/05/02 02:33:51;;;;;;;2.55;1.63;;;;;;;;;;6287502;22;20011;-80
2023/05/02 02:36:55;;;;;;;2.33;2.03;;;;;;;;;;6288690;22;20024;-80
2023/05/02 02:40:03;;;;;;;2.10;1.50;;;;;;;;;;6287882;22;20019;-80
2023/05/02 02:42:51;;;;;;;2.30;1.70;;;;;;;;;;6287698;22;20023;-79
2023/05/02 02:45:37;;;;;;;2.92;1.90;;;;;;;;;;6288706;22;20015;-81
2023/05/02 02:48:45;;;;;;;2.78;2.10;;;;;;;;;;6287530;22;20015;-80
2023/05/02 02:52:12;;;;;;;3.60;2.03;;;;;;;;;;6288410;22;20348;-80
2023/05/02 02:55:05;;;;;;;2.42;1.98;;;;;;;;;;6194952;23;20025;-80
2023/05/02 02:58:20;;;;;;;2.85;1.80;;;;;;;;;;6173813;23;20021;-80
2023/05/02 03:01:09;;;;;;;;;;;;;;;;;;6287956;22;20016;-80
2023/05/02 03:03:56;;;;;;;5.00;2.58;;;;;;;;;;6288778;22;19911;-80
2023/05/02 03:06:42;;;;;;;2.75;2.35;;;;;;;;;;6287044;22;20429;-79
2023/05/02 03:09:40;;;;;;;3.75;2.50;;;;;;;;;;6287146;22;20074;-80
2023/05/02 03:12:25;;;;;;;4.30;2.60;;;;;;;;;;6287355;22;20016;-80
2023/05/02 03:15:29;;;;;;;3.60;2.63;;;;;;;;;;6287251;22;20015;-80
2023/05/02 03:18:14;;;;;;;3.50;2.30;;;;;;;;;;6287496;22;20019;-80
2023/05/02 03:21:00;;;;;;;4.03;2.50;;;;;;;;;;6288204;22;20019;-80
2023/05/02 03:23:46;;;;;;;3.38;2.72;;;;;;;;;;6287272;22;20345;-80
2023/05/02 03:26:31;;;;;;;4.70;3.05;;;;;;;;;;6286853;22;20016;-80
2023/05/02 03:29:17;;;;;;;7.85;2.65;;;;;;;;;;6286832;22;20024;-80
2023/05/02 03:32:03;;;;;;;2.92;2.40;;;;;;;;;;6286932;22;20338;-80
2023/05/02 03:34:48;;;;;;;4.90;3.05;;;;;;;;;;6286849;22;20024;-81
2023/05/02 03:37:34;;;;;;;3.40;2.50;;;;;;;;;;6286932;22;20015;-80
2023/05/02 03:40:20;;;;;;;3.35;2.65;;;;;;;;;;6287105;22;20341;-80
2023/05/02 03:43:06;;;;;;;3.00;2.50;;;;;;;;;;6288349;22;20019;-80
2023/05/02 03:45:52;;;;;;;4.82;2.67;;;;;;;;;;6288071;22;20019;-80
2023/05/02 03:48:37;;;;;;;4.35;2.40;;;;;;;;;;6286710;22;20015;-80
2023/05/02 03:51:23;;;;;;;5.28;2.83;;;;;;;;;;6288310;22;20016;-81
2023/05/02 03:54:11;;;;;;;2.90;1.98;;;;;;;;;;6286772;22;20020;-81
2023/05/02 03:56:59;;;;;;;4.50;2.53;;;;;;;;;;6286722;22;20023;-81
2023/05/02 03:59:49;;;;;;;4.88;2.17;;;;;;;;;;6288617;22;20027;-81
2023/05/02 04:02:43;;;;;;;4.15;2.75;;;;;;;;;;6286447;22;20341;-81
2023/05/02 04:05:32;;;;;;;3.35;2.58;;;;;;;;;;6286546;22;20020;-80
2023/05/02 04:08:17;;;;;;;2.92;2.35;;;;;;;;;;6288400;22;20433;-81
2023/05/02 04:11:03;;;;;;;3.45;2.63;;;;;;;;;;6286853;22;20020;-80
2023/05/02 04:13:48;;;;;;;3.92;2.83;;;;;;;;;;6286593;22;20019;-80
2023/05/02 04:16:34;;;;;;;5.30;2.60;;;;;;;;;;6286606;22;20019;-80
2023/05/02 04:19:19;;;;;;;4.30;3.00;;;;;;;;;;6286561;22;20019;-81
2023/05/02 04:22:05;;;;;;;5.05;3.03;;;;;;;;;;6286834;22;20349;-80
2023/05/02 04:24:54;;;;;;;4.85;3.10;;;;;;;;;;6286598;22;20347;-80
2023/05/02 04:27:41;;;;;;;7.00;3.10;;;;;;;;;;6286264;22;20015;-81
2023/05/02 04:30:30;;;;;;;5.13;2.75;;;;;;;;;;6286461;22;20020;-80
2023/05/02 04:33:20;;;;;;;5.97;2.97;;;;;;;;;;6286441;22;20008;-80
2023/05/02 04:36:09;;;;;;;3.70;2.70;;;;;;;;;;6286796;22;20019;-80
2023/05/02 04:38:54;;;;;;;3.00;2.70;;;;;;;;;;6286296;22;20023;-80
2023/05/02 04:41:40;;;;;;;3.35;2.30;;;;;;;;;;6286872;22;20437;-80
2023/05/02 04:44:26;;;;;;;4.10;2.70;;;;;;;;;;6286226;22;20020;-80
2023/05/02 04:47:13;;;;;;;3.25;2.47;;;;;;;;;;6286201;22;20020;-80
2023/05/02 04:49:58;;;;;;;4.30;2.30;;;;;;;;;;6287494;22;20042;-80
2023/05/02 04:52:43;;;;;;;2.80;2.35;;;;;;;;;;6286605;22;20016;-80
2023/05/02 04:55:29;;;;;;;4.40;2.67;;;;;;;;;;6286058;22;20016;-80
2023/05/02 04:58:15;;;;;;;4.03;2.40;;;;;;;;;;6286104;22;20016;-80
2023/05/02 05:01:02;;;;;;;2.60;2.17;;;;;;;;;;6287319;22;20019;-80
2023/05/02 05:03:47;;;;;;;6.85;2.60;;;;;;;;;;6286390;22;20016;-80
2023/05/02 05:06:34;;;;;;;4.05;2.35;;;;;;;;;;6286216;22;20015;-80
2023/05/02 05:09:20;;;;;;;3.45;2.28;;;;;;;;;;6286723;22;20019;-79
2023/05/02 05:12:06;;;;;;;3.60;2.38;;;;;;;;;;6287141;22;20015;-80
2023/05/02 05:14:53;;;;;;;2.80;2.22;;;;;;;;;;6286100;22;20353;-80
2023/05/02 05:17:41;;;;;;;4.70;2.75;;;;;;;;;;6286397;22;20019;-80
2023/05/02 05:20:26;;;;;;;5.28;2.50;;;;;;;;;;6285910;22;20016;-80
2023/05/02 05:23:15;;;;;;;3.53;2.92;;;;;;;;;;6285888;22;20441;-81
2023/05/02 05:26:11;;;;;;;3.50;2.35;;;;;;;;;;6285827;22;20016;-80
2023/05/02 05:28:57;;;;;;;3.45;2.22;;;;;;;;;;6285880;22;20365;-80
2023/05/02 05:31:46;;;;;;;2.45;1.70;;;;;;;;;;6286009;22;20019;-80
2023/05/02 05:34:35;;;;;;;3.58;2.50;;;;;;;;;;6285940;22;20019;-80
2023/05/02 05:37:20;;;;;;;2.80;2.22;;;;;;;;;;6285873;22;20015;-80
2023/05/02 05:40:07;;;;;;;3.58;2.22;;;;;;;;;;6285873;22;20015;-80
2023/05/02 05:42:53;;;;;;;3.45;2.40;;;;;;;;;;6286132;22;20020;-80
2023/05/02 05:45:44;;;;;;;5.07;2.45;;;;;;;;;;6286010;22;20338;-81
2023/05/02 05:48:30;;;;;;;3.28;2.10;;;;;;;;;;6285748;22;20019;-81
2023/05/02 05:51:16;;;;;;;3.80;2.30;;;;;;;;;;6285818;22;20019;-82
2023/05/02 05:54:02;;;;;;;2.17;1.98;;;;;;;;;;6285282;22;20338;-81
2023/05/02 05:56:48;;;;;;;3.97;2.30;;;;;;;;;;6285988;22;20015;-81
2023/05/02 05:59:36;;;;;;;3.35;2.10;;;;;;;;;;6286151;22;20338;-81
2023/05/02 06:02:23;;;;;;;2.40;1.77;;;;;;;;;;6285328;22;20019;-81
2023/05/02 06:05:09;;;;;;;4.22;2.10;;;;;;;;;;6285715;22;20434;-81
2023/05/02 06:07:55;;;;;;;4.03;2.10;;;;;;;;;;6287359;22;20020;-79
2023/05/02 06:10:41;;;;;;;5.20;2.30;;;;;;;;;;6288825;22;20016;-80
2023/05/02 06:13:27;;;;;;;4.28;2.17;;;;;;;;;;6287648;22;20012;-80
2023/05/02 06:16:13;;;;;;;5.40;1.70;;;;;;;;;;6287505;22;20019;-81
2023/05/02 06:18:59;;;;;;;3.63;1.95;;;;;;;;;;6287185;22;20456;-81
2023/05/02 06:21:44;;;;;;;3.13;2.17;;;;;;;;;;6287352;22;20011;-80
2023/05/02 06:24:29;;;;;;;3.40;1.95;;;;;;;;;;6288737;22;20024;-80
2023/05/02 06:27:16;;;;;;;7.70;2.17;;;;;;;;;;6289056;22;20019;-80
2023/05/02 06:30:07;;;;;;;2.25;1.70;;;;;;;;;;6288664;22;20020;-81
2023/05/02 06:32:56;;;;;;;2.67;2.05;;;;;;;;;;6288615;22;20007;-81
2023/05/02 06:35:50;;;;;;;1.55;1.45;;;;;;;;;;6288394;22;20020;-81
2023/05/02 06:38:36;;;;;;;6.78;1.85;;;;;;;;;;6288482;22;20015;-81
2023/05/02 06:41:22;;;;;;;3.45;1.80;;;;;;;;;;6288398;22;20015;-82
2023/05/02 06:44:08;;;;;;;4.55;1.77;;;;;;;;;;6288132;22;20012;-80
2023/05/02 06:46:57;;;;;;;4.65;2.28;;;;;;;;;;6288463;22;20015;-80
2023/05/02 06:49:42;;;;;;;6.05;2.35;;;;;;;;;;6288790;22;20020;-81
2023/05/02 06:52:28;;;;;;;2.33;1.88;;;;;;;;;;6288523;22;20016;-83
2023/05/02 06:55:15;;;;;;;4.30;1.75;;;;;;;;;;6288937;22;20016;-82
2023/05/02 06:58:01;;;;;;;2.13;1.45;;;;;;;;;;6288416;22;20019;-81
2023/05/02 07:00:48;;;;;;;3.47;1.88;;;;;;;;;;6266121;22;20020;-81
2023/05/02 07:03:33;;;;;;;4.10;2.35;;;;;;;;;;6288135;22;20015;-82
2023/05/02 07:06:19;;;;;;;2.92;1.60;;;;;;;;;;6288281;22;20023;-81
2023/05/02 07:09:04;;;;;;;3.13;2.17;;;;;;;;;;6288753;22;20020;-81
2023/05/02 07:11:51;;;;;;;1.83;1.45;;;;;;;;;;6288272;22;20016;-82
2023/05/02 07:14:36;;;;;;;5.30;2.45;;;;;;;;;;6288322;22;20016;-79
2023/05/02 07:17:22;;;;;;;2.75;1.90;;;;;;;;;;6288074;22;20016;-80
2023/05/02 07:20:10;;;;;;;2.17;1.55;;;;;;;;;;6266364;22;20028;-80
2023/05/02 07:22:56;;;;;;;2.75;1.60;;;;;;;;;;6288110;22;20016;-79
2023/05/02 07:25:47;;;;;;;2.72;2.10;;;;;;;;;;6287566;22;20019;-80
2023/05/02 07:28:34;;;;;;;2.80;1.55;;;;;;;;;;6282888;22;20016;-80
2023/05/02 07:31:25;;;;;;;6.75;2.38;;;;;;;;;;6288094;22;20438;-80
2023/05/02 07:34:10;;;;;;;3.17;1.95;;;;;;;;;;6288114;22;20015;-80
2023/05/02 07:37:00;;;;;;;2.65;1.77;;;;;;;;;;6288114;22;20035;-81
2023/05/02 07:39:50;;;;;;;4.18;2.00;;;;;;;;;;6287860;22;20016;-81
2023/05/02 07:42:40;;;;;;;3.15;1.75;;;;;;;;;;6287937;22;20016;-80
2023/05/02 07:45:32;;;;;;;1.83;1.60;;;;;;;;;;6287977;22;20330;-81
2023/05/02 07:48:17;;;;;;;5.13;1.90;;;;;;;;;;6286829;22;20015;-81
2023/05/02 07:51:10;;;;;;;3.38;1.70;;;;;;;;;;6287939;22;20015;-81
2023/05/02 07:54:02;;;;;;;3.47;1.88;;;;;;;;;;6287618;22;20011;-81
2023/05/02 07:56:48;;;;;;;2.63;1.88;;;;;;;;;;6287725;22;20015;-81
2023/05/02 07:59:34;;;;;;;2.35;1.77;;;;;;;;;;6287518;22;20031;-81
2023/05/02 08:02:20;;;;;;;3.30;2.08;;;;;;;;;;6287597;22;20027;-80
2023/05/02 08:05:05;;;;;;;4.90;2.72;;;;;;;;;;6288215;22;20019;-81
2023/05/02 08:07:52;;;;;;;4.20;1.90;;;;;;;;;;6287369;22;20019;-81
2023/05/02 08:10:44;;;;;;;2.17;1.55;;;;;;;;;;6287888;22;20012;-81
2023/05/02 08:13:34;;;;;;;2.95;1.63;;;;;;;;;;6287819;22;20333;-81
2023/05/02 08:16:21;;;;;;;3.30;1.80;;;;;;;;;;6287576;22;20015;-81
2023/05/02 08:19:07;;;;;;;4.03;2.00;;;;;;;;;;6287670;22;20016;-81
2023/05/02 08:21:53;;;;;;;2.35;1.75;;;;;;;;;;6287451;22;20020;-81
2023/05/02 08:24:39;;;;;;;4.93;2.03;;;;;;;;;;6287999;22;20059;-80
2023/05/02 08:27:25;;;;;;;2.88;2.30;;;;;;;;;;6278087;22;20015;-81
2023/05/02 08:30:15;;;;;;;2.67;1.77;;;;;;;;;;6287319;22;20020;-81
2023/05/02 08:33:06;;;;;;;1.80;1.60;;;;;;;;;;6287914;22;20015;-81
2023/05/02 08:35:52;;;;;;;1.65;1.20;;;;;;;;;;6287358;22;20020;-81
2023/05/02 08:38:38;;;;;;;4.90;1.67;;;;;;;;;;6287401;22;20019;-81
2023/05/02 08:41:30;;;;;;;3.20;1.98;;;;;;;;;;6287628;22;20019;-81
2023/05/02 08:44:15;;;;;;;1.70;1.50;;;;;;;;;;6287697;22;20341;-82
2023/05/02 08:47:09;;;;;;;2.05;1.80;;;;;;;;;;6287685;22;20019;-81
2023/05/02 08:49:56;;;;;;;6.10;2.00;;;;;;;;;;6287358;22;20019;-77
2023/05/02 08:52:43;;;;;;;5.82;3.20;;;;;;;;;;6287403;22;20015;-77
2023/05/02 08:55:38;;;;;;;3.08;2.22;;;;;;;;;;6287319;22;20329;-78
2023/05/02 08:58:24;;;;;;;2.25;1.60;;;;;;;;;;6291398;22;20019;-79
2023/05/02 09:01:20;;;;;;;4.80;3.47;;;;;;;;;;6290097;22;20453;-77
2023/05/02 09:04:08;;;;;;;2.88;1.90;;;;;;;;;;6288350;22;20015;-83
2023/05/02 09:07:01;;;;;;;2.10;1.70;;;;;;;;;;6287746;22;20016;-77
2023/05/02 09:09:47;;;;;;;5.63;2.60;;;;;;;;;;6290854;22;20020;-77
2023/05/02 09:12:38;;;;;;;3.28;1.95;;;;;;;;;;6290844;22;20019;-76
2023/05/02 09:15:23;;;;;;;5.75;2.58;;;;;;;;;;6287592;22;20015;-77
2023/05/02 09:18:19;;;;;;;5.35;2.97;;;;;;;;;;6290153;22;20015;-79
2023/05/02 09:21:07;;;;;;;10.55;2.22;;;;;;;;;;6292448;22;20019;-78
2023/05/02 09:23:56;;;;;;;2.60;1.98;;;;;;;;;;6292165;22;20019;-78
2023/05/02 09:27:07;;;;;;;2.97;1.98;;;;;;;;;;6292685;22;20333;-79
2023/05/02 09:29:54;;;;;;;;;;;;;;;;;;6291845;22;20019;-78
2023/05/02 09:32:45;;;;;;;4.72;1.70;;;;;;;;;;6292343;22;19907;-79
2023/05/02 09:35:30;;;;;;;3.72;2.00;;;;;;;;;;6290567;22;20019;-77
2023/05/02 09:38:19;;;;;;;6.35;2.30;;;;;;;;;;6289478;22;20016;-79
2023/05/02 09:41:06;;;;;;;4.30;2.65;;;;;;;;;;6293324;22;20012;-79
2023/05/02 09:43:58;;;;;;;3.95;2.17;;;;;;;;;;6291962;22;20020;-79
2023/05/02 09:46:46;;;;;;;6.13;2.00;;;;;;;;;;6290946;22;20019;-78
2023/05/02 09:49:43;;;;;;;2.65;2.10;;;;;;;;;;6292103;22;20015;-78
2023/05/02 09:52:29;;;;;;;6.05;2.00;;;;;;;;;;6294722;22;20425;-79
2023/05/02 09:55:22;;;;;;;5.03;2.28;;;;;;;;;;6291661;22;20015;-78
2023/05/02 09:58:20;;;;;;;2.47;1.80;;;;;;;;;;6290572;22;20429;-79
2023/05/02 10:01:07;;;;;;;3.90;2.13;;;;;;;;;;6294463;22;20015;-78
2023/05/02 10:03:53;;;;;;;5.05;1.95;;;;;;;;;;6293268;22;20020;-78
2023/05/02 10:06:46;;;;;;;2.35;1.90;;;;;;;;;;6292319;22;20329;-76
2023/05/02 10:09:35;;;;;;;3.35;2.03;;;;;;;;;;6292366;22;20337;-78
2023/05/02 10:12:25;;;;;;;1.95;1.70;;;;;;;;;;6292190;22;20015;-78
2023/05/02 10:15:13;;;;;;;2.13;1.90;;;;;;;;;;6293039;22;20012;-76
2023/05/02 10:18:02;;;;;;;5.15;2.47;;;;;;;;;;6293143;22;20019;-79
2023/05/02 10:20:56;;;;;;;8.02;3.38;;;;;;;;;;6290556;22;20015;-78
2023/05/02 10:23:43;;;;;;;6.90;3.28;;;;;;;;;;6292869;22;20023;-79
2023/05/02 10:26:34;;;;;;;3.70;2.30;;;;;;;;;;6290504;22;20015;-79
2023/05/02 10:29:28;;;;;;;2.50;2.10;;;;;;;;;;6281661;22;20015;-78
2023/05/02 10:32:20;;;;;;;;;;;;;;;;;;6291661;22;20016;-78
2023/05/02 10:35:08;;;;;;;4.18;1.85;;;;;;;;;;6290381;22;20209;-78
2023/05/02 10:37:53;;;;;;;2.83;1.80;;;;;;;;;;6292746;22;20020;-75
2023/05/02 10:40:54;;;;;;;4.85;2.20;;;;;;;;;;6293292;22;20023;-77
2023/05/02 10:43:46;;;;;;;3.05;2.08;;;;;;;;;;6290868;22;20016;-77
2023/05/02 10:46:31;;;;;;;6.53;2.28;;;;;;;;;;6293044;22;20020;-77
2023/05/02 10:49:26;;;;;;;4.43;2.20;;;;;;;;;;6289222;22;20020;-77
2023/05/02 10:52:36;;;;;;;3.90;2.58;;;;;;;;;;6290552;22;20015;-80
2023/05/02 10:55:23;;;;;;;3.05;1.98;;;;;;;;;;6292039;22;20016;-77
2023/05/02 10:58:08;;;;;;;4.20;2.10;;;;;;;;;;6293462;22;20019;-79
2023/05/02 11:01:25;;;;;;;2.22;2.03;;;;;;;;;;6293697;22;20019;-77
2023/05/02 11:04:12;;;;;;;3.13;2.33;;;;;;;;;;6294136;22;20016;-78
2023/05/02 11:07:03;;;;;;;3.20;2.45;;;;;;;;;;6295431;22;20024;-78
2023/05/02 11:10:15;;;;;;;3.63;2.10;;;;;;;;;;6290961;22;20016;-79
2023/05/02 11:13:02;;;;;;;2.10;1.70;;;;;;;;;;6292554;22;20019;-78
2023/05/02 11:15:53;;;;;;;3.22;2.03;;;;;;;;;;6292261;22;20084;-81
2023/05/02 11:18:59;;;;;;;3.10;2.10;;;;;;;;;;6292760;22;20441;-80
2023/05/02 11:21:52;;;;;;;4.25;1.80;;;;;;;;;;6292211;22;20019;-80
2023/05/02 11:24:43;;;;;;;3.67;1.85;;;;;;;;;;6292272;22;20016;-78
2023/05/02 11:27:28;;;;;;;2.75;2.03;;;;;;;;;;6293719;22;20016;-79
2023/05/02 11:30:44;;;;;;;5.40;2.08;;;;;;;;;;6291416;22;20019;-79
2023/05/02 11:33:30;;;;;;;3.10;2.10;;;;;;;;;;6293375;22;20016;-78
2023/05/02 11:36:32;;;;;;;2.05;1.60;;;;;;;;;;6292452;22;20019;-79
2023/05/02 11:39:20;;;;;;;6.95;4.25;;;;;;;;;;6290905;22;20012;-77
2023/05/02 11:42:27;;;;;;;4.40;2.40;;;;;;;;;;6289830;22;20019;-77
2023/05/02 11:45:13;;;;;;;2.90;2.20;;;;;;;;;;6289077;22;20020;-76
2023/05/02 11:47:59;;;;;;;4.25;2.03;;;;;;;;;;6288775;22;20020;-77
2023/05/02 11:50:48;;;;;;;4.15;2.10;;;;;;;;;;6289642;22;20019;-77
2023/05/02 11:53:33;;;;;;;11.90;4.80;;;;;;;;;;6289070;22;20016;-77
2023/05/02 11:56:23;;;;;;;13.93;7.28;;;;;;;;;;6288520;22;20015;-77
2023/05/02 11:59:09;;;;;;;5.07;3.45;;;;;;;;;;6288576;22;20360;-77
2023/05/02 12:01:54;;;;;;;5.20;2.55;;;;;;;;;;6288897;22;20016;-77
2023/05/02 12:04:46;;;;;;;3.08;2.13;;;;;;;;;;6288036;22;20019;-78
2023/05/02 12:07:42;;;;;;;2.65;2.20;;;;;;;;;;6288424;22;20425;-77
2023/05/02 12:10:36;;;;;;;2.60;2.03;;;;;;;;;;6288457;22;20019;-77
2023/05/02 12:13:25;;;;;;;4.40;2.47;;;;;;;;;;6288761;22;20045;-78
2023/05/02 12:16:11;;;;;;;3.53;2.35;;;;;;;;;;6288658;22;20015;-79
2023/05/02 12:19:04;;;;;;;5.93;4.00;;;;;;;;;;6288950;22;20016;-79
2023/05/02 12:21:58;;;;;;;9.48;5.97;;;;;;;;;;6292311;22;20015;-79
2023/05/02 12:24:45;;;;;;;5.78;3.88;;;;;;;;;;6289841;22;20345;-78
2023/05/02 12:27:37;;;;;;;7.28;2.58;;;;;;;;;;6290881;22;20019;-77
2023/05/02 12:30:27;;;;;;;7.30;3.88;;;;;;;;;;6291641;22;20016;-79
2023/05/02 12:33:13;;;;;;;4.03;2.85;;;;;;;;;;6292972;22;20019;-79
2023/05/02 12:36:06;;;;;;;5.03;2.35;;;;;;;;;;6290838;22;20449;-79
2023/05/02 12:38:58;;;;;;;;;;;;;;;;;;6294916;22;20016;-78
2023/05/02 12:41:48;;;;;;;5.20;4.07;;;;;;;;;;6291692;22;19907;-79
2023/05/02 12:44:38;;;;;;;3.80;2.22;;;;;;;;;;6292583;22;20012;-79
2023/05/02 12:47:26;;;;;;;4.43;2.70;;;;;;;;;;6291770;22;20019;-78
2023/05/02 12:50:14;;;;;;;3.97;2.63;;;;;;;;;;6290737;22;20015;-80
2023/05/02 12:53:00;;;;;;;7.88;3.28;;;;;;;;;;6287925;22;20019;-80
2023/05/02 12:56:01;;;;;;;5.25;3.20;;;;;;;;;;6288495;22;20012;-78
2023/05/02 12:58:48;;;;;;;5.78;3.00;;;;;;;;;;6292471;22;20011;-77
2023/05/02 13:01:34;;;;;;;5.05;3.70;;;;;;;;;;6292210;22;20019;-77
2023/05/02 13:04:20;;;;;;;4.35;2.90;;;;;;;;;;6292238;22;20020;-77
2023/05/02 13:07:06;;;;;;;3.95;2.50;;;;;;;;;;6290942;22;20015;-77
2023/05/02 13:09:53;;;;;;;3.83;2.20;;;;;;;;;;6290448;22;20345;-78
2023/05/02 13:12:40;;;;;;;4.78;2.40;;;;;;;;;;6290101;22;20015;-77
2023/05/02 13:15:25;;;;;;;2.25;2.00;;;;;;;;;;6291133;22;20011;-77
2023/05/02 13:18:12;;;;;;;1.95;1.60;;;;;;;;;;6291295;22;20333;-76
2023/05/02 13:21:04;;;;;;;3.53;1.90;;;;;;;;;;6289386;22;20016;-76
2023/05/02 13:23:50;;;;;;;2.65;1.70;;;;;;;;;;6289668;22;20015;-77
2023/05/02 13:27:00;;;;;;;5.40;3.05;;;;;;;;;;6288302;22;20019;-82
2023/05/02 13:29:48;;;;;;;4.10;2.25;;;;;;;;;;6286027;22;20441;-78
2023/05/02 13:32:34;;;;;;;2.80;2.17;;;;;;;;;;6288056;22;20020;-78
2023/05/02 13:35:20;;;;;;;5.25;2.00;;;;;;;;;;6287599;22;20012;-78
2023/05/02 13:38:06;;;;;;;7.85;1.70;;;;;;;;;;6287841;22;20015;-79
2023/05/02 13:40:56;;;;;;;4.00;2.33;;;;;;;;;;6287225;22;20019;-80
2023/05/02 13:43:43;;;;;;;2.65;1.90;;;;;;;;;;6286933;22;20020;-78
2023/05/02 13:46:36;;;;;;;5.07;2.10;;;;;;;;;;6288045;22;20020;-79
2023/05/02 13:49:21;;;;;;;4.18;2.50;;;;;;;;;;6287409;22;20012;-79
2023/05/02 13:52:07;;;;;;;2.70;2.42;;;;;;;;;;6287305;22;20020;-79
2023/05/02 13:54:57;;;;;;;3.60;1.77;;;;;;;;;;6287343;22;20016;-76
2023/05/02 13:57:43;;;;;;;4.82;2.63;;;;;;;;;;6287152;22;20012;-80
2023/05/02 14:00:28;;;;;;;2.47;1.85;;;;;;;;;;6286512;22;20016;-80
2023/05/02 14:03:20;;;;;;;4.05;1.70;;;;;;;;;;6286910;22;20020;-81
2023/05/02 14:06:11;;;;;;;2.42;1.88;;;;;;;;;;6287372;22;20019;-81
2023/05/02 14:09:03;;;;;;;3.88;1.98;;;;;;;;;;6287342;22;20015;-80
2023/05/02 14:11:49;;;;;;;3.67;1.98;;;;;;;;;;6286865;22;20330;-81
2023/05/02 14:14:36;;;;;;;5.57;2.50;;;;;;;;;;6291099;22;20015;-80
2023/05/02 14:17:25;;;;;;;6.50;2.60;;;;;;;;;;6290069;22;20020;-80
2023/05/02 14:20:12;;;;;;;3.05;1.80;;;;;;;;;;6290863;22;20015;-79
2023/05/02 14:22:58;;;;;;;5.07;1.83;;;;;;;;;;6291587;22;20020;-77
2023/05/02 14:25:44;;;;;;;2.90;1.52;;;;;;;;;;6290068;22;20016;-81
2023/05/02 14:28:30;;;;;;;2.72;1.60;;;;;;;;;;6289418;22;20020;-81
2023/05/02 14:31:20;;;;;;;5.15;1.80;;;;;;;;;;6295323;22;20019;-78
2023/05/02 14:34:06;;;;;;;5.32;2.45;;;;;;;;;;6288577;22;20016;-85
2023/05/02 14:36:52;;;;;;;2.50;1.98;;;;;;;;;;6265589;22;20012;-79
2023/05/02 14:39:39;;;;;;;2.72;1.75;;;;;;;;;;6288606;22;20020;-82
2023/05/02 14:42:29;;;;;;;6.70;1.75;;;;;;;;;;6288774;22;20015;-82
2023/05/02 14:45:16;;;;;;;3.15;2.20;;;;;;;;;;6287178;22;20337;-81
2023/05/02 14:48:03;;;;;;;3.75;2.30;;;;;;;;;;6288747;22;20015;-82
2023/05/02 14:50:53;;;;;;;6.22;2.03;;;;;;;;;;6288717;22;20015;-81
2023/05/02 14:53:38;;;;;;;6.20;1.80;;;;;;;;;;6288410;22;20019;-82
2023/05/02 14:56:24;;;;;;;2.05;1.75;;;;;;;;;;6288614;22;20019;-82
2023/05/02 14:59:10;;;;;;;3.15;2.35;;;;;;;;;;6288623;22;20016;-81
2023/05/02 15:01:56;;;;;;;2.28;1.98;;;;;;;;;;6288129;22;20334;-81
2023/05/02 15:04:41;;;;;;;3.03;2.25;;;;;;;;;;6288342;22;20024;-82
2023/05/02 15:07:31;;;;;;;2.90;1.60;;;;;;;;;;6288464;22;20015;-82
2023/05/02 15:10:22;;;;;;;1.52;1.33;;;;;;;;;;6288732;22;20060;-83
2023/05/02 15:13:10;;;;;;;3.22;2.05;;;;;;;;;;6288939;22;20020;-84
2023/05/02 15:15:56;;;;;;;6.40;2.20;;;;;;;;;;6266544;22;20329;-82
2023/05/02 15:18:42;;;;;;;3.95;2.47;;;;;;;;;;6266120;22;20019;-83
2023/05/02 15:21:29;;;;;;;4.18;2.30;;;;;;;;;;6288401;22;20019;-82
2023/05/02 15:24:16;;;;;;;2.50;1.80;;;;;;;;;;6288291;22;20019;-82
2023/05/02 15:27:08;;;;;;;2.92;1.98;;;;;;;;;;6289110;22;20349;-83
2023/05/02 15:29:54;;;;;;;3.38;1.60;;;;;;;;;;6288706;22;20020;-83
2023/05/02 15:32:41;;;;;;;4.93;2.20;;;;;;;;;;6289183;22;20020;-82
2023/05/02 15:35:31;;;;;;;2.60;1.88;;;;;;;;;;6288425;22;20380;-82
2023/05/02 15:38:17;;;;;;;3.67;1.98;;;;;;;;;;6288542;22;20019;-83
2023/05/02 15:41:02;;;;;;;4.40;2.40;;;;;;;;;;6288403;22;20345;-83
2023/05/02 15:43:53;;;;;;;6.68;3.45;;;;;;;;;;6287976;22;20016;-83
2023/05/02 15:46:39;;;;;;;3.50;2.35;;;;;;;;;;6286916;22;20020;-80
2023/05/02 15:49:30;;;;;;;2.70;1.83;;;;;;;;;;6287879;22;20020;-78
2023/05/02 15:52:19;;;;;;;6.20;2.60;;;;;;;;;;6288074;22;20019;-85
2023/05/02 15:55:09;;;;;;;4.55;2.38;;;;;;;;;;6266800;22;20008;-80
2023/05/02 15:57:55;;;;;;;3.70;2.38;;;;;;;;;;6287969;22;20019;-79
2023/05/02 16:00:44;;;;;;;4.07;2.20;;;;;;;;;;6288240;22;20016;-80
2023/05/02 16:03:30;;;;;;;3.97;2.30;;;;;;;;;;6265123;22;20020;-78
2023/05/02 16:06:20;;;;;;;7.38;2.25;;;;;;;;;;6287961;22;20345;-80
2023/05/02 16:09:06;;;;;;;4.65;2.35;;;;;;;;;;6287546;22;20019;-81
2023/05/02 16:11:52;;;;;;;6.72;2.47;;;;;;;;;;6288028;22;20023;-82
2023/05/02 16:14:37;;;;;;;5.15;2.58;;;;;;;;;;6287764;22;20433;-77
2023/05/02 16:17:24;;;;;;;5.93;2.22;;;;;;;;;;6287586;22;20015;-78
2023/05/02 16:20:09;;;;;;;4.95;2.53;;;;;;;;;;6287803;22;20450;-82
2023/05/02 16:22:54;;;;;;;2.85;2.30;;;;;;;;;;6288133;22;20019;-81
2023/05/02 16:25:45;;;;;;;3.75;2.30;;;;;;;;;;6287047;22;20019;-81
2023/05/02 16:28:30;;;;;;;5.68;2.60;;;;;;;;;;6281126;22;20341;-83
2023/05/02 16:31:21;;;;;;;4.25;2.50;;;;;;;;;;6286371;22;20012;-84
2023/05/02 16:34:08;;;;;;;4.07;2.65;;;;;;;;;;6287779;22;20015;-79
2023/05/02 16:36:58;;;;;;;7.95;4.78;;;;;;;;;;6287627;22;20011;-79
2023/05/02 16:39:45;;;;;;;13.90;8.00;;;;;;;;;;6286391;22;20019;-78
2023/05/02 16:42:31;;;;;;;8.73;4.95;;;;;;;;;;6287061;22;20020;-87
2023/05/02 16:45:15;;;;;;;6.70;3.55;;;;;;;;;;6285729;22;20349;-85
2023/05/02 16:48:02;;;;;;;11.77;7.15;;;;;;;;;;6287977;22;20019;-86
2023/05/02 16:50:48;;;;;;;9.00;4.22;;;;;;;;;;6287978;22;20421;-85
2023/05/02 16:53:33;;;;;;;6.72;3.38;;;;;;;;;;6287798;22;20020;-84